This is the latest recevied weather packets stored in our database for station/object CE3TL-WX. If no packets are shown the sender has not sent any weather packets the latest 10 day(s).
| Time | Temp. | Humidity | Pressure | Rain* | Wind** | Luminosity | Snow |
|---|---|---|---|---|---|---|---|
| 1778084817 | 16.11° C | 57% | 1024.8 hPa | - | - | - | - |
| 1778084284 | 16.67° C | 55% | 1024.4 hPa | - | - | - | - |
| 1778083750 | 16.67° C | 52% | 1024.3 hPa | - | - | - | - |
| 1778083216 | 16.67° C | 51% | 1024.3 hPa | - | - | - | - |
| 1778082682 | 17.22° C | 51% | 1024.1 hPa | - | - | - | - |
| 1778082147 | 17.22° C | 51% | 1024 hPa | - | - | - | - |
| 1778081613 | 17.78° C | 49% | 1024.1 hPa | - | - | - | - |
| 1778081078 | 16.67° C | 52% | 1024.3 hPa | - | - | - | - |
| 1778080543 | 16.67° C | 53% | 1024.4 hPa | - | - | - | - |
| 1778080010 | 16.67° C | 48% | 1024 hPa | - | - | - | - |
| 1778079475 | 16.67° C | 55% | 1024 hPa | - | - | - | - |
| 1778078942 | 16.67° C | 55% | 1024 hPa | - | - | - | - |
| 1778078408 | 16.11° C | 58% | 1023.9 hPa | - | - | - | - |
| 1778077874 | 15.56° C | 60% | 1023.8 hPa | - | - | - | - |
| 1778077340 | 15.56° C | 59% | 1023.7 hPa | - | - | - | - |
| 1778076806 | 15.56° C | 57% | 1023.6 hPa | - | - | - | - |
| 1778076271 | 15° C | 56% | 1023.8 hPa | - | - | - | - |
| 1778075737 | 15° C | 57% | 1023.8 hPa | - | - | - | - |
| 1778075203 | 14.44° C | 58% | 1024.3 hPa | - | - | - | - |
| 1778074668 | 13.89° C | 59% | 1024.3 hPa | - | - | - | - |
| 1778074135 | 13.89° C | 61% | 1024.2 hPa | - | - | - | - |
| 1778073601 | 13.33° C | 64% | 1024.3 hPa | - | - | - | - |
| 1778073065 | 12.78° C | 71% | 1024.5 hPa | - | - | - | - |
| 1778072531 | 12.22° C | 77% | 1024.4 hPa | - | - | - | - |
| 1778071997 | 11.67° C | 79% | 1024.6 hPa | - | - | - | - |
* Rain since midnight (hover to see other rain measurements)
** Current wind speed in m/s (hover to see current wind gust speed)